Tar Heel, North Carolina
Current Conditions -  °F | °C
As of 4:35 PM on Saturday 25 Oct 2014 (Local Time) from KEYF Reporting Station
Clear Clear  
Wind Chill: 73°   Ceiling: Unl
Heat Index: 73°   Visibility: 10mi
Dew Point: 41°   Wind: 6mph
Humidity: 31%   Direction: 300°WNW
Pressure: 29.92"   Gusts: NA
Location:  34.73°N, 78.79°W
Report Text: KEYF 252035Z AUTO 30005KT 10SM CLR 23/05 A2992 RMK AO2 T02300050
Loading
Personal Weather Stations






























Interactive Weather Map New forecast layout! Learn more

10-Day Weather Forecast

Advertisements
Track Severe Weather on mobile